createdAt,value
2018-10-05T00:01:27.035Z,9.90
2018-10-05T00:03:56.225Z,9.90
2018-10-05T00:06:25.253Z,9.90
2018-10-05T00:08:54.272Z,9.80
2018-10-05T00:11:23.342Z,9.80
2018-10-05T00:13:52.508Z,9.80
2018-10-05T00:16:21.586Z,9.70
2018-10-05T00:18:50.586Z,9.70
2018-10-05T00:21:19.661Z,9.70
2018-10-05T00:23:48.705Z,9.60
2018-10-05T00:26:17.745Z,9.60
2018-10-05T00:28:46.786Z,9.50
2018-10-05T00:31:15.798Z,9.50
2018-10-05T00:33:44.869Z,9.50
2018-10-05T00:36:13.906Z,9.50
2018-10-05T00:38:42.914Z,9.40
2018-10-05T00:41:11.960Z,9.40
2018-10-05T00:43:41.023Z,9.40
2018-10-05T00:46:10.056Z,9.40
2018-10-05T00:48:39.113Z,9.40
2018-10-05T00:51:08.126Z,9.40
2018-10-05T00:53:37.256Z,9.40
2018-10-05T00:56:06.312Z,9.30
2018-10-05T00:58:35.361Z,9.30
2018-10-05T01:01:04.439Z,9.30
2018-10-05T01:03:33.466Z,9.20
2018-10-05T01:06:02.523Z,9.20
2018-10-05T01:08:31.534Z,9.10
2018-10-05T01:11:00.672Z,9.10
2018-10-05T01:13:29.703Z,9.10
2018-10-05T01:15:58.768Z,9.20
2018-10-05T01:18:27.825Z,9.10
2018-10-05T01:20:56.839Z,9.10
2018-10-05T01:23:26.531Z,9.10
2018-10-05T01:25:55.617Z,9.20
2018-10-05T01:28:24.638Z,9.10
2018-10-05T01:30:53.674Z,9.10
2018-10-05T01:33:22.715Z,9.10
2018-10-05T01:35:51.774Z,9.20
2018-10-05T01:38:20.841Z,9.20
2018-10-05T01:40:49.855Z,9.30
2018-10-05T01:43:18.876Z,9.20
2018-10-05T01:45:47.921Z,9.20
2018-10-05T01:48:16.996Z,9.20
2018-10-05T01:50:46.046Z,9.20
2018-10-05T01:53:15.164Z,9.20
2018-10-05T01:55:44.230Z,9.20
2018-10-05T01:58:13.273Z,9.20
2018-10-05T02:00:42.311Z,9.10
2018-10-05T02:03:11.397Z,9.20
2018-10-05T02:05:40.446Z,9.20
2018-10-05T02:08:09.524Z,9.20
2018-10-05T02:10:38.578Z,9.20
2018-10-05T02:13:07.615Z,9.20
2018-10-05T02:15:36.693Z,9.10
2018-10-05T02:18:05.736Z,9.10
2018-10-05T02:20:34.886Z,9.10
2018-10-05T02:23:03.940Z,9.00
2018-10-05T02:25:32.955Z,9.00
2018-10-05T02:28:02.076Z,9.00
2018-10-05T02:30:31.083Z,9.00
2018-10-05T02:33:00.150Z,9.00
2018-10-05T02:35:29.198Z,9.00
2018-10-05T02:37:58.256Z,8.90
2018-10-05T02:40:27.301Z,8.90
2018-10-05T02:42:56.355Z,8.90
2018-10-05T02:45:25.381Z,8.80
2018-10-05T02:47:54.437Z,8.80
2018-10-05T02:50:23.500Z,8.70
2018-10-05T02:52:52.980Z,8.70
2018-10-05T02:55:22.047Z,8.70
2018-10-05T02:57:51.046Z,8.70
2018-10-05T03:00:31.478Z,8.70
2018-10-05T03:03:00.525Z,8.70
2018-10-05T03:05:29.573Z,8.70
2018-10-05T03:07:58.608Z,8.60
2018-10-05T03:10:27.655Z,8.60
2018-10-05T03:12:56.681Z,8.60
2018-10-05T03:15:25.726Z,8.60
2018-10-05T03:17:54.742Z,8.60
2018-10-05T03:20:23.775Z,8.60
2018-10-05T03:22:52.861Z,8.60
2018-10-05T03:25:21.887Z,8.60
2018-10-05T03:27:50.910Z,8.50
2018-10-05T03:30:19.967Z,8.40
2018-10-05T03:32:49.002Z,8.40
2018-10-05T03:35:18.042Z,8.40
2018-10-05T03:37:47.037Z,8.40
2018-10-05T03:40:16.117Z,8.40
2018-10-05T03:42:45.127Z,8.30
2018-10-05T03:45:14.226Z,8.40
2018-10-05T03:47:43.271Z,8.40
2018-10-05T03:50:12.273Z,8.40
2018-10-05T03:52:41.470Z,8.40
2018-10-05T03:55:10.580Z,8.40
2018-10-05T03:57:39.650Z,8.40
2018-10-05T04:00:08.682Z,8.40
2018-10-05T04:02:37.706Z,8.40
2018-10-05T04:05:06.803Z,8.40
2018-10-05T04:07:35.807Z,8.40
2018-10-05T04:10:04.894Z,8.40
2018-10-05T04:12:33.952Z,8.30
2018-10-05T04:15:03.008Z,8.30
2018-10-05T04:17:32.070Z,8.30
2018-10-05T04:20:01.247Z,8.30
2018-10-05T04:22:31.342Z,8.30
2018-10-05T04:25:00.362Z,8.20
2018-10-05T04:27:29.437Z,8.20
2018-10-05T04:29:58.489Z,8.20
2018-10-05T04:32:27.519Z,8.10
2018-10-05T04:34:56.564Z,8.10
2018-10-05T04:37:25.652Z,8.00
2018-10-05T04:39:54.686Z,7.90
2018-10-05T04:42:23.778Z,7.90
2018-10-05T04:44:52.798Z,7.80
2018-10-05T04:47:21.889Z,7.80
2018-10-05T04:49:50.954Z,7.80
2018-10-05T04:52:20.001Z,7.80
2018-10-05T04:54:49.067Z,7.80
2018-10-05T04:57:18.140Z,7.80
2018-10-05T05:02:22.386Z,7.80
2018-10-05T05:04:51.432Z,7.80
2018-10-05T05:07:20.497Z,7.80
2018-10-05T05:09:49.551Z,7.80
2018-10-05T05:12:18.621Z,7.80
2018-10-05T05:14:47.649Z,7.80
2018-10-05T05:17:16.691Z,7.80
2018-10-05T05:19:45.832Z,7.80
2018-10-05T05:22:17.702Z,7.80
2018-10-05T05:24:47.343Z,7.80
2018-10-05T05:27:16.385Z,7.90
2018-10-05T05:29:45.422Z,7.90
2018-10-05T05:32:14.431Z,7.90
2018-10-05T05:34:43.499Z,7.90
2018-10-05T05:37:12.494Z,7.90
2018-10-05T05:39:41.530Z,8.00
2018-10-05T05:42:10.580Z,8.00
2018-10-05T05:44:39.619Z,8.00
2018-10-05T05:47:09.216Z,8.00
2018-10-05T05:49:38.270Z,8.00
2018-10-05T05:52:07.756Z,8.10
2018-10-05T05:54:36.848Z,8.10
2018-10-05T05:57:05.886Z,8.10
2018-10-05T05:59:34.961Z,8.10
2018-10-05T06:02:04.049Z,8.10
2018-10-05T06:04:33.082Z,8.20
2018-10-05T06:07:02.154Z,8.10
2018-10-05T06:09:31.189Z,8.10
2018-10-05T06:12:00.266Z,8.10
2018-10-05T06:14:29.289Z,8.10
2018-10-05T06:16:58.579Z,8.10
2018-10-05T06:19:27.653Z,8.10
2018-10-05T06:21:56.835Z,8.20
2018-10-05T06:24:25.804Z,8.20
2018-10-05T06:26:54.852Z,8.20
2018-10-05T06:29:23.917Z,8.30
2018-10-05T06:31:52.908Z,8.30
2018-10-05T06:34:21.972Z,8.30
2018-10-05T06:36:50.980Z,8.30
2018-10-05T06:39:20.034Z,8.30
2018-10-05T06:41:49.088Z,8.30
2018-10-05T06:44:18.188Z,8.30
2018-10-05T06:46:47.263Z,8.40
2018-10-05T06:49:16.375Z,8.40
2018-10-05T06:51:45.430Z,8.50
2018-10-05T06:54:14.489Z,8.50
2018-10-05T06:56:43.578Z,8.50
2018-10-05T06:59:12.637Z,8.60
2018-10-05T07:01:41.716Z,8.70
2018-10-05T07:04:10.778Z,8.70
2018-10-05T07:06:39.841Z,8.80
2018-10-05T07:09:09.042Z,8.90
2018-10-05T07:11:38.100Z,9.00
2018-10-05T07:14:07.152Z,9.10
2018-10-05T07:16:36.201Z,9.20
2018-10-05T07:19:05.266Z,9.20
2018-10-05T07:21:34.341Z,9.30
2018-10-05T07:24:03.344Z,9.40
2018-10-05T07:26:32.417Z,9.50
2018-10-05T07:29:01.493Z,9.50
2018-10-05T07:31:31.192Z,9.60
2018-10-05T07:34:00.277Z,9.70
2018-10-05T07:36:29.361Z,9.80
2018-10-05T07:38:59.121Z,9.90
2018-10-05T07:41:28.202Z,10.00
2018-10-05T07:43:57.239Z,10.10
2018-10-05T07:46:26.301Z,10.10
2018-10-05T07:48:55.365Z,10.30
2018-10-05T07:51:24.437Z,10.30
2018-10-05T07:53:53.559Z,10.40
2018-10-05T07:56:22.598Z,10.40
2018-10-05T07:58:51.713Z,10.50
2018-10-05T08:01:20.792Z,10.60
2018-10-05T08:03:49.831Z,10.70
2018-10-05T08:06:18.888Z,10.80
2018-10-05T08:08:47.948Z,10.90
2018-10-05T08:11:17.033Z,11.00
2018-10-05T08:13:46.124Z,11.10
2018-10-05T08:16:15.149Z,11.20
2018-10-05T08:18:44.232Z,11.30
2018-10-05T08:21:13.310Z,11.30
2018-10-05T08:23:42.333Z,11.50
2018-10-05T08:26:11.413Z,11.60
2018-10-05T08:28:40.472Z,11.70
2018-10-05T08:31:09.539Z,11.80
2018-10-05T08:33:38.600Z,11.90
2018-10-05T08:36:07.857Z,12.00
2018-10-05T08:38:36.916Z,12.10
2018-10-05T08:41:06.010Z,12.20
2018-10-05T08:43:35.107Z,12.30
2018-10-05T08:46:04.215Z,12.40
2018-10-05T08:48:33.303Z,12.50
2018-10-05T08:51:02.360Z,12.70
2018-10-05T08:53:31.494Z,12.80
2018-10-05T08:56:00.570Z,12.90
2018-10-05T08:58:29.651Z,13.00
2018-10-05T09:00:58.714Z,13.10
2018-10-05T09:03:27.794Z,13.20
2018-10-05T09:05:56.888Z,13.40
2018-10-05T09:08:25.966Z,13.50
2018-10-05T09:10:55.055Z,13.60
2018-10-05T09:13:24.104Z,13.70
2018-10-05T09:15:53.174Z,13.80
2018-10-05T09:18:22.261Z,13.90
2018-10-05T09:20:51.311Z,14.10
2018-10-05T09:23:20.400Z,14.20
2018-10-05T09:25:49.437Z,14.30
2018-10-05T09:28:18.500Z,14.40
2018-10-05T09:30:47.609Z,14.50
2018-10-05T09:33:16.695Z,14.70
2018-10-05T09:35:45.881Z,14.80
2018-10-05T09:38:14.933Z,14.90
2018-10-05T09:40:43.973Z,15.00
2018-10-05T09:43:13.033Z,15.10
2018-10-05T09:45:42.038Z,15.20
2018-10-05T09:48:11.116Z,15.30
2018-10-05T09:50:40.172Z,15.40
2018-10-05T09:53:09.189Z,15.50
2018-10-05T09:55:38.807Z,15.60
2018-10-05T09:58:07.948Z,15.70
2018-10-05T10:00:42.224Z,15.70
2018-10-05T10:03:25.499Z,15.80
2018-10-05T10:05:54.560Z,15.80
2018-10-05T10:08:23.608Z,15.90
2018-10-05T10:10:52.695Z,15.90
2018-10-05T10:13:21.805Z,16.00
2018-10-05T10:15:50.880Z,16.10
2018-10-05T10:18:20.032Z,16.10
2018-10-05T10:20:49.065Z,16.20
2018-10-05T10:23:18.321Z,16.30
2018-10-05T10:25:47.407Z,16.40
2018-10-05T10:28:16.823Z,16.50
2018-10-05T10:30:47.545Z,16.60
2018-10-05T10:33:16.600Z,16.70
2018-10-05T10:35:45.790Z,16.80
2018-10-05T10:38:14.838Z,16.90
2018-10-05T10:40:43.884Z,16.90
2018-10-05T10:43:12.961Z,17.00
2018-10-05T10:45:42.008Z,17.00
2018-10-05T10:48:11.089Z,17.10
2018-10-05T10:50:40.176Z,17.20
2018-10-05T10:53:09.323Z,17.20
2018-10-05T10:55:38.359Z,17.30
2018-10-05T10:58:07.662Z,17.30
2018-10-05T11:00:36.841Z,17.40
2018-10-05T11:03:05.961Z,17.50
2018-10-05T11:05:35.052Z,17.60
2018-10-05T11:08:04.140Z,17.60
2018-10-05T11:10:33.180Z,17.60
2018-10-05T11:13:02.245Z,17.70
2018-10-05T11:15:31.350Z,17.80
2018-10-05T11:18:00.491Z,17.90
2018-10-05T11:20:30.156Z,17.90
2018-10-05T11:22:59.281Z,18.00
2018-10-05T11:25:28.305Z,18.00
2018-10-05T11:27:57.436Z,18.10
2018-10-05T11:30:26.696Z,18.20
2018-10-05T11:32:55.753Z,18.20
2018-10-05T11:35:24.856Z,18.20
2018-10-05T11:37:53.916Z,18.20
2018-10-05T11:40:23.033Z,18.20
2018-10-05T11:42:52.061Z,18.20
2018-10-05T11:45:21.125Z,18.30
2018-10-05T11:47:50.151Z,18.40
2018-10-05T11:50:19.210Z,18.40
2018-10-05T11:52:48.268Z,18.50
2018-10-05T11:55:17.341Z,18.40
2018-10-05T11:57:46.463Z,18.50
2018-10-05T12:00:18.065Z,18.50
2018-10-05T12:02:47.798Z,18.50
2018-10-05T12:05:17.616Z,18.50
2018-10-05T12:07:46.605Z,18.50
2018-10-05T12:10:15.662Z,18.60
2018-10-05T12:12:44.719Z,18.70
2018-10-05T12:15:13.777Z,18.70
2018-10-05T12:17:42.841Z,18.70
2018-10-05T12:20:11.943Z,18.80
2018-10-05T12:22:41.001Z,18.80
2018-10-05T12:25:10.077Z,18.80
2018-10-05T12:27:39.169Z,18.80
2018-10-05T12:30:08.277Z,18.80
2018-10-05T12:32:37.329Z,18.80
2018-10-05T12:35:06.382Z,18.80
2018-10-05T12:37:35.450Z,18.80
2018-10-05T12:40:04.583Z,18.80
2018-10-05T12:42:33.755Z,18.80
2018-10-05T12:45:02.870Z,18.80
2018-10-05T12:47:31.948Z,18.80
2018-10-05T12:50:02.223Z,18.90
2018-10-05T12:52:31.769Z,18.90
2018-10-05T12:55:00.880Z,18.80
2018-10-05T12:57:29.908Z,18.80
2018-10-05T12:59:59.003Z,18.80
2018-10-05T13:02:28.048Z,18.80
2018-10-05T13:04:57.147Z,18.80
2018-10-05T13:07:26.238Z,18.80
2018-10-05T13:09:55.308Z,18.90
2018-10-05T13:12:24.372Z,18.90
2018-10-05T13:14:53.471Z,18.80
2018-10-05T13:17:22.495Z,18.80
2018-10-05T13:19:51.573Z,18.90
2018-10-05T13:22:20.644Z,18.90
2018-10-05T13:24:49.686Z,18.90
2018-10-05T13:27:18.824Z,18.90
2018-10-05T13:29:47.880Z,18.90
2018-10-05T13:32:16.967Z,18.90
2018-10-05T13:34:46.040Z,19.00
2018-10-05T13:37:15.137Z,19.00
2018-10-05T13:39:44.196Z,19.00
2018-10-05T13:42:13.322Z,19.00
2018-10-05T13:44:42.364Z,19.00
2018-10-05T13:47:11.454Z,18.90
2018-10-05T13:49:40.489Z,18.90
2018-10-05T13:52:09.542Z,18.90
2018-10-05T13:54:38.627Z,18.90
2018-10-05T13:57:08.417Z,19.00
2018-10-05T13:59:37.552Z,19.00
2018-10-05T14:02:06.658Z,19.00
2018-10-05T14:04:35.749Z,19.00
2018-10-05T14:07:04.891Z,19.10
2018-10-05T14:09:33.984Z,19.10
2018-10-05T14:12:03.127Z,19.10
2018-10-05T14:14:32.204Z,19.10
2018-10-05T14:17:02.532Z,19.10
2018-10-05T14:19:31.622Z,19.10
2018-10-05T14:22:01.276Z,19.10
2018-10-05T14:24:30.384Z,19.10
2018-10-05T14:26:59.455Z,19.00
2018-10-05T14:29:28.561Z,19.00
2018-10-05T14:31:57.627Z,19.00
2018-10-05T14:34:26.693Z,19.00
2018-10-05T14:36:55.781Z,19.00
2018-10-05T14:39:24.845Z,19.00
2018-10-05T14:41:54.036Z,19.00
2018-10-05T14:44:23.655Z,19.00
2018-10-05T14:46:52.763Z,19.00
2018-10-05T14:49:21.968Z,19.00
2018-10-05T14:51:51.009Z,18.90
2018-10-05T14:54:20.093Z,18.90
2018-10-05T14:56:49.173Z,18.90
2018-10-05T14:59:18.348Z,18.80
2018-10-05T15:01:47.520Z,18.80
2018-10-05T15:04:16.619Z,18.80
2018-10-05T15:06:45.653Z,18.80
2018-10-05T15:09:14.697Z,18.80
2018-10-05T15:11:43.802Z,18.70
2018-10-05T15:14:12.821Z,18.70
2018-10-05T15:16:41.960Z,18.60
2018-10-05T15:19:10.988Z,18.60
2018-10-05T15:21:40.287Z,18.50
2018-10-05T15:24:09.340Z,18.60
2018-10-05T15:26:38.438Z,18.60
2018-10-05T15:29:07.469Z,18.60
2018-10-05T15:31:36.542Z,18.70
2018-10-05T15:34:05.617Z,18.80
2018-10-05T15:36:34.744Z,19.00
2018-10-05T15:39:05.568Z,19.20
2018-10-05T15:41:34.644Z,19.40
2018-10-05T15:44:03.772Z,19.70
2018-10-05T15:47:13.813Z,19.90
2018-10-05T15:49:43.294Z,20.30
2018-10-05T15:52:12.396Z,20.60
2018-10-05T15:54:41.484Z,20.80
2018-10-05T15:57:10.689Z,20.70
2018-10-05T15:59:40.017Z,20.40
2018-10-05T16:02:09.173Z,20.10
2018-10-05T16:04:38.216Z,19.70
2018-10-05T16:07:07.301Z,19.30
2018-10-05T16:09:36.329Z,18.90
2018-10-05T16:12:05.750Z,18.50
2018-10-05T16:14:34.910Z,18.20
2018-10-05T16:17:05.231Z,17.80
2018-10-05T16:19:34.294Z,17.60
2018-10-05T16:22:05.377Z,17.30
2018-10-05T16:24:38.735Z,17.10
2018-10-05T16:27:08.182Z,16.80
2018-10-05T16:29:37.566Z,16.60
2018-10-05T16:32:07.107Z,16.40
2018-10-05T16:34:36.207Z,16.20
2018-10-05T16:37:05.797Z,16.00
2018-10-05T16:39:35.098Z,15.80
2018-10-05T16:42:04.809Z,15.60
2018-10-05T16:44:33.830Z,15.50
2018-10-05T16:47:05.473Z,15.30
2018-10-05T16:49:34.620Z,15.10
2018-10-05T16:52:05.680Z,14.90
2018-10-05T16:54:34.751Z,14.80
2018-10-05T16:57:04.434Z,14.60
2018-10-05T16:59:33.598Z,14.50
2018-10-05T17:02:06.777Z,14.30
2018-10-05T17:04:35.837Z,14.20
2018-10-05T17:07:04.934Z,14.10
2018-10-05T17:09:34.129Z,13.90
2018-10-05T17:12:06.153Z,13.80
2018-10-05T17:14:35.231Z,13.60
2018-10-05T17:17:05.351Z,13.50
2018-10-05T17:19:34.436Z,13.40
2018-10-05T17:22:03.541Z,13.20
2018-10-05T17:24:32.688Z,13.10
2018-10-05T17:27:06.245Z,13.00
2018-10-05T17:29:35.364Z,12.90
2018-10-05T17:32:05.774Z,12.80
2018-10-05T17:34:34.959Z,12.70
2018-10-05T17:37:05.284Z,12.60
2018-10-05T17:39:34.323Z,12.60
2018-10-05T17:42:06.347Z,12.50
2018-10-05T17:44:35.540Z,12.50
2018-10-05T17:47:06.905Z,12.40
2018-10-05T17:49:36.685Z,12.40
2018-10-05T17:52:05.826Z,12.30
2018-10-05T17:54:35.031Z,12.30
2018-10-05T17:57:04.079Z,12.20
2018-10-05T17:59:33.869Z,12.20
2018-10-05T18:02:05.057Z,12.00
2018-10-05T18:04:34.092Z,12.00
2018-10-05T18:07:06.736Z,11.90
2018-10-05T18:09:35.844Z,11.90
2018-10-05T18:12:04.936Z,11.80
2018-10-05T18:14:34.152Z,11.80
2018-10-05T18:17:05.166Z,11.80
2018-10-05T18:19:34.182Z,11.70
2018-10-05T18:22:06.281Z,11.70
2018-10-05T18:24:35.299Z,11.70
2018-10-05T18:27:06.508Z,11.70
2018-10-05T18:29:35.567Z,11.70
2018-10-05T18:32:06.010Z,11.70
2018-10-05T18:34:35.100Z,11.70
2018-10-05T18:37:07.261Z,11.60
2018-10-05T18:39:36.293Z,11.60
2018-10-05T18:42:06.781Z,11.60
2018-10-05T18:44:35.853Z,11.60
2018-10-05T18:47:05.240Z,11.60
2018-10-05T18:49:34.367Z,11.50
2018-10-05T18:52:07.319Z,11.50
2018-10-05T18:54:36.542Z,11.40
2018-10-05T18:57:12.530Z,11.40
2018-10-05T18:59:41.691Z,11.40
2018-10-05T19:02:10.843Z,11.30
2018-10-05T19:04:39.959Z,11.30
2018-10-05T19:07:09.334Z,11.30
2018-10-05T19:09:38.491Z,11.20
2018-10-05T19:12:07.622Z,11.10
2018-10-05T19:14:36.717Z,11.10
2018-10-05T19:17:05.853Z,11.00
2018-10-05T19:19:34.976Z,10.90
2018-10-05T19:22:07.276Z,10.80
2018-10-05T19:24:36.308Z,10.70
2018-10-05T19:27:05.775Z,10.70
2018-10-05T19:29:34.888Z,10.60
2018-10-05T19:32:04.025Z,10.60
2018-10-05T19:34:33.189Z,10.50
2018-10-05T19:37:03.066Z,10.50
2018-10-05T19:39:32.176Z,10.50
2018-10-05T19:42:01.294Z,10.50
2018-10-05T19:44:30.370Z,10.50
2018-10-05T19:46:59.413Z,10.50
2018-10-05T19:49:28.516Z,10.40
2018-10-05T19:51:57.610Z,10.40
2018-10-05T19:54:26.816Z,10.40
2018-10-05T19:56:55.822Z,10.30
2018-10-05T19:59:24.871Z,10.30
2018-10-05T20:01:54.032Z,10.20
2018-10-05T20:04:23.074Z,10.20
2018-10-05T20:06:52.262Z,10.20
2018-10-05T20:09:21.382Z,10.20
2018-10-05T20:11:50.513Z,10.20
2018-10-05T20:14:19.679Z,10.20
2018-10-05T20:16:49.485Z,10.10
2018-10-05T20:19:18.582Z,10.10
2018-10-05T20:21:47.704Z,10.00
2018-10-05T20:24:16.814Z,10.00
2018-10-05T20:26:45.913Z,10.00
2018-10-05T20:29:15.058Z,10.00
2018-10-05T20:31:44.108Z,10.00
2018-10-05T20:34:13.273Z,9.90
2018-10-05T20:36:42.520Z,9.90
2018-10-05T20:39:11.517Z,9.80
2018-10-05T20:41:40.608Z,9.80
2018-10-05T20:44:09.651Z,9.70
2018-10-05T20:46:38.776Z,9.60
2018-10-05T20:49:07.809Z,9.60
2018-10-05T20:51:36.934Z,9.60
2018-10-05T20:54:06.015Z,9.50
2018-10-05T20:56:35.114Z,9.50
2018-10-05T20:59:04.237Z,9.50
2018-10-05T21:01:33.272Z,9.50
2018-10-05T21:04:06.230Z,9.50
2018-10-05T21:06:36.577Z,9.40
2018-10-05T21:09:07.594Z,9.40
2018-10-05T21:11:36.633Z,9.30
2018-10-05T21:14:06.038Z,9.30
2018-10-05T21:16:35.059Z,9.30
2018-10-05T21:19:06.568Z,9.20
2018-10-05T21:21:35.581Z,9.20
2018-10-05T21:24:06.426Z,9.20
2018-10-05T21:26:35.578Z,9.10
2018-10-05T21:29:06.540Z,9.20
2018-10-05T21:31:37.022Z,9.20
2018-10-05T21:34:06.417Z,9.20
2018-10-05T21:36:35.457Z,9.20
2018-10-05T21:39:06.253Z,9.10
2018-10-05T21:41:35.274Z,9.10
2018-10-05T21:44:06.391Z,9.00
2018-10-05T21:46:35.486Z,9.00
2018-10-05T21:49:04.520Z,9.00
2018-10-05T21:51:33.581Z,9.00
2018-10-05T21:54:06.096Z,9.00
2018-10-05T21:56:35.362Z,9.00
2018-10-05T21:59:04.498Z,9.00
2018-10-05T22:01:33.562Z,9.00
2018-10-05T22:04:02.637Z,9.00
2018-10-05T22:06:31.722Z,9.00
2018-10-05T22:09:00.737Z,8.90
2018-10-05T22:11:30.764Z,8.90
2018-10-05T22:13:59.817Z,8.80
2018-10-05T22:16:28.909Z,8.80
2018-10-05T22:18:57.978Z,8.80
2018-10-05T22:21:27.017Z,8.90
2018-10-05T22:23:56.560Z,8.80
2018-10-05T22:26:25.807Z,8.80
2018-10-05T22:28:54.801Z,8.80
2018-10-05T22:31:24.816Z,8.70
2018-10-05T22:33:53.855Z,8.70
2018-10-05T22:36:22.963Z,8.70
2018-10-05T22:38:52.043Z,8.70
2018-10-05T22:41:21.521Z,8.70
2018-10-05T22:43:51.060Z,8.80
2018-10-05T22:46:20.542Z,8.80
2018-10-05T22:48:49.806Z,8.70
2018-10-05T22:51:19.007Z,8.70
2018-10-05T22:53:48.115Z,8.70
2018-10-05T22:56:17.366Z,8.60
2018-10-05T22:58:46.487Z,8.60
2018-10-05T23:01:15.587Z,8.60
2018-10-05T23:03:44.600Z,8.60
2018-10-05T23:06:14.436Z,8.60
2018-10-05T23:08:43.484Z,8.60
2018-10-05T23:11:12.605Z,8.60
2018-10-05T23:13:41.678Z,8.60
2018-10-05T23:16:11.451Z,8.60
2018-10-05T23:18:40.638Z,8.60
2018-10-05T23:21:10.303Z,8.70
2018-10-05T23:23:39.491Z,8.70
2018-10-05T23:26:08.790Z,8.70
2018-10-05T23:28:37.862Z,8.60
2018-10-05T23:31:06.925Z,8.60
2018-10-05T23:33:35.997Z,8.60
2018-10-05T23:36:05.097Z,8.60
2018-10-05T23:38:34.109Z,8.60
2018-10-05T23:41:03.179Z,8.50
2018-10-05T23:43:32.200Z,8.70
2018-10-05T23:46:02.282Z,8.90
2018-10-05T23:48:31.394Z,9.10
2018-10-05T23:51:00.550Z,9.10
2018-10-05T23:53:29.620Z,9.20
2018-10-05T23:55:58.693Z,9.20
2018-10-05T23:58:27.762Z,9.20
